sensor_id;sensor_type;location;lat;lon;timestamp;pressure;altitude;pressure_sealevel;temperature;humidity
21779;BME280;11050;52.222;20.916;2023-02-04T00:01:00;99501.16;;;1.22;100.00
21779;BME280;11050;52.222;20.916;2023-02-04T00:03:25;99503.66;;;1.17;100.00
21779;BME280;11050;52.222;20.916;2023-02-04T00:05:51;99510.75;;;1.12;100.00
21779;BME280;11050;52.222;20.916;2023-02-04T00:08:17;99512.22;;;1.08;100.00
21779;BME280;11050;52.222;20.916;2023-02-04T00:10:43;99529.69;;;1.12;100.00
21779;BME280;11050;52.222;20.916;2023-02-04T00:13:08;99534.31;;;1.05;100.00
21779;BME280;11050;52.222;20.916;2023-02-04T00:15:34;99547.41;;;1.01;100.00
21779;BME280;11050;52.222;20.916;2023-02-04T00:18:00;99556.38;;;1.02;100.00
21779;BME280;11050;52.222;20.916;2023-02-04T00:20:25;99561.56;;;1.03;100.00
21779;BME280;11050;52.222;20.916;2023-02-04T00:22:51;99563.66;;;1.01;100.00
21779;BME280;11050;52.222;20.916;2023-02-04T00:25:17;99574.28;;;0.96;100.00
21779;BME280;11050;52.222;20.916;2023-02-04T00:27:43;99573.03;;;0.92;100.00
21779;BME280;11050;52.222;20.916;2023-02-04T00:30:09;99580.50;;;0.96;100.00
21779;BME280;11050;52.222;20.916;2023-02-04T00:32:35;99581.16;;;0.92;100.00
21779;BME280;11050;52.222;20.916;2023-02-04T00:35:01;99591.34;;;0.90;100.00
21779;BME280;11050;52.222;20.916;2023-02-04T00:37:30;99590.50;;;0.89;100.00
21779;BME280;11050;52.222;20.916;2023-02-04T00:39:56;99606.28;;;0.92;100.00
21779;BME280;11050;52.222;20.916;2023-02-04T00:42:22;99607.34;;;0.91;100.00
21779;BME280;11050;52.222;20.916;2023-02-04T00:44:48;99612.75;;;0.91;100.00
21779;BME280;11050;52.222;20.916;2023-02-04T00:47:13;99616.31;;;0.92;100.00
21779;BME280;11050;52.222;20.916;2023-02-04T00:49:39;99635.63;;;0.89;100.00
21779;BME280;11050;52.222;20.916;2023-02-04T00:52:05;99642.09;;;0.88;100.00
21779;BME280;11050;52.222;20.916;2023-02-04T00:54:31;99654.78;;;0.87;100.00
21779;BME280;11050;52.222;20.916;2023-02-04T00:56:57;99668.09;;;0.89;100.00
21779;BME280;11050;52.222;20.916;2023-02-04T00:59:23;99677.03;;;0.89;100.00
21779;BME280;11050;52.222;20.916;2023-02-04T01:01:49;99686.81;;;0.84;100.00
21779;BME280;11050;52.222;20.916;2023-02-04T01:04:16;99675.38;;;0.82;100.00
21779;BME280;11050;52.222;20.916;2023-02-04T01:06:42;99690.56;;;0.83;100.00
21779;BME280;11050;52.222;20.916;2023-02-04T01:09:08;99695.13;;;0.82;100.00
21779;BME280;11050;52.222;20.916;2023-02-04T01:11:34;99717.19;;;0.86;100.00
21779;BME280;11050;52.222;20.916;2023-02-04T01:14:01;99711.78;;;0.86;100.00
21779;BME280;11050;52.222;20.916;2023-02-04T01:16:27;99724.25;;;0.87;100.00
21779;BME280;11050;52.222;20.916;2023-02-04T01:18:53;99726.16;;;0.86;100.00
21779;BME280;11050;52.222;20.916;2023-02-04T01:21:22;99730.72;;;0.86;100.00
21779;BME280;11050;52.222;20.916;2023-02-04T01:23:48;99754.84;;;0.87;100.00
21779;BME280;11050;52.222;20.916;2023-02-04T01:26:18;99744.88;;;0.88;100.00
21779;BME280;11050;52.222;20.916;2023-02-04T01:28:45;99762.13;;;0.80;100.00
21779;BME280;11050;52.222;20.916;2023-02-04T01:31:11;99764.41;;;0.83;100.00
21779;BME280;11050;52.222;20.916;2023-02-04T01:33:37;99778.97;;;0.82;100.00
21779;BME280;11050;52.222;20.916;2023-02-04T01:36:03;99788.31;;;0.80;100.00
21779;BME280;11050;52.222;20.916;2023-02-04T01:38:29;99802.25;;;0.83;100.00
21779;BME280;11050;52.222;20.916;2023-02-04T01:40:55;99799.56;;;0.77;100.00
21779;BME280;11050;52.222;20.916;2023-02-04T01:43:23;99804.31;;;0.75;100.00
21779;BME280;11050;52.222;20.916;2023-02-04T01:45:50;99808.94;;;0.81;100.00
21779;BME280;11050;52.222;20.916;2023-02-04T01:48:19;99821.81;;;0.85;100.00
21779;BME280;11050;52.222;20.916;2023-02-04T01:50:52;99841.16;;;0.82;100.00
21779;BME280;11050;52.222;20.916;2023-02-04T01:53:24;99839.31;;;0.83;100.00
21779;BME280;11050;52.222;20.916;2023-02-04T01:55:51;99862.59;;;0.84;100.00
21779;BME280;11050;52.222;20.916;2023-02-04T01:58:18;99877.97;;;0.83;100.00
21779;BME280;11050;52.222;20.916;2023-02-04T02:00:44;99868.59;;;0.79;100.00
21779;BME280;11050;52.222;20.916;2023-02-04T02:03:10;99878.81;;;0.84;100.00
21779;BME280;11050;52.222;20.916;2023-02-04T02:05:48;99877.56;;;0.80;100.00
21779;BME280;11050;52.222;20.916;2023-02-04T02:08:16;99891.94;;;0.87;100.00
21779;BME280;11050;52.222;20.916;2023-02-04T02:10:45;99906.09;;;0.89;100.00
21779;BME280;11050;52.222;20.916;2023-02-04T02:13:16;99919.44;;;0.90;100.00
21779;BME280;11050;52.222;20.916;2023-02-04T02:15:43;99915.03;;;0.83;100.00
21779;BME280;11050;52.222;20.916;2023-02-04T02:18:10;99933.97;;;0.83;100.00
21779;BME280;11050;52.222;20.916;2023-02-04T02:20:36;99946.88;;;0.87;100.00
21779;BME280;11050;52.222;20.916;2023-02-04T02:23:46;99952.06;;;0.89;100.00
21779;BME280;11050;52.222;20.916;2023-02-04T02:26:15;99963.94;;;0.88;100.00
21779;BME280;11050;52.222;20.916;2023-02-04T02:28:41;99988.50;;;0.93;100.00
21779;BME280;11050;52.222;20.916;2023-02-04T02:31:08;99995.97;;;0.91;100.00
21779;BME280;11050;52.222;20.916;2023-02-04T02:33:34;100005.34;;;0.88;100.00
21779;BME280;11050;52.222;20.916;2023-02-04T02:36:01;100011.78;;;0.87;100.00
21779;BME280;11050;52.222;20.916;2023-02-04T02:38:27;100011.13;;;0.85;100.00
21779;BME280;11050;52.222;20.916;2023-02-04T02:40:54;100031.53;;;0.88;100.00
21779;BME280;11050;52.222;20.916;2023-02-04T02:43:24;100032.97;;;0.84;100.00
21779;BME280;11050;52.222;20.916;2023-02-04T02:45:51;100048.22;;;0.91;100.00
21779;BME280;11050;52.222;20.916;2023-02-04T02:48:19;100045.84;;;0.82;100.00
21779;BME280;11050;52.222;20.916;2023-02-04T02:50:47;100060.03;;;0.84;100.00
21779;BME280;11050;52.222;20.916;2023-02-04T02:53:17;100069.19;;;0.83;100.00
21779;BME280;11050;52.222;20.916;2023-02-04T02:55:43;100080.00;;;0.83;100.00
21779;BME280;11050;52.222;20.916;2023-02-04T02:58:23;100095.41;;;0.89;100.00
21779;BME280;11050;52.222;20.916;2023-02-04T03:00:51;100099.53;;;0.85;100.00
21779;BME280;11050;52.222;20.916;2023-02-04T03:03:25;100096.25;;;0.89;100.00
21779;BME280;11050;52.222;20.916;2023-02-04T03:06:04;100111.28;;;0.92;100.00
21779;BME280;11050;52.222;20.916;2023-02-04T03:08:31;100112.72;;;0.94;100.00
21779;BME280;11050;52.222;20.916;2023-02-04T03:10:57;100123.75;;;0.93;100.00
21779;BME280;11050;52.222;20.916;2023-02-04T03:13:23;100130.25;;;0.98;100.00
21779;BME280;11050;52.222;20.916;2023-02-04T03:15:50;100150.34;;;0.89;100.00
21779;BME280;11050;52.222;20.916;2023-02-04T03:18:19;100149.91;;;0.86;100.00
21779;BME280;11050;52.222;20.916;2023-02-04T03:20:47;100157.25;;;0.92;100.00
21779;BME280;11050;52.222;20.916;2023-02-04T03:23:13;100160.78;;;0.92;100.00
21779;BME280;11050;52.222;20.916;2023-02-04T03:25:39;100166.59;;;0.89;100.00
21779;BME280;11050;52.222;20.916;2023-02-04T03:28:05;100188.47;;;0.94;100.00
21779;BME280;11050;52.222;20.916;2023-02-04T03:30:31;100194.28;;;0.91;100.00
21779;BME280;11050;52.222;20.916;2023-02-04T03:32:57;100210.09;;;0.94;100.00
21779;BME280;11050;52.222;20.916;2023-02-04T03:35:23;100220.28;;;0.92;100.00
21779;BME280;11050;52.222;20.916;2023-02-04T03:37:49;100241.34;;;0.97;100.00
21779;BME280;11050;52.222;20.916;2023-02-04T03:40:15;100238.66;;;0.97;100.00
21779;BME280;11050;52.222;20.916;2023-02-04T03:42:41;100252.19;;;0.97;100.00
21779;BME280;11050;52.222;20.916;2023-02-04T03:45:07;100259.00;;;0.93;100.00
21779;BME280;11050;52.222;20.916;2023-02-04T03:47:33;100256.91;;;0.88;100.00
21779;BME280;11050;52.222;20.916;2023-02-04T03:49:59;100270.97;;;0.84;100.00
21779;BME280;11050;52.222;20.916;2023-02-04T03:52:24;100268.78;;;0.73;100.00
21779;BME280;11050;52.222;20.916;2023-02-04T03:54:50;100275.72;;;0.61;100.00
21779;BME280;11050;52.222;20.916;2023-02-04T03:57:16;100292.88;;;0.53;100.00
21779;BME280;11050;52.222;20.916;2023-02-04T03:59:42;100297.56;;;0.45;100.00
21779;BME280;11050;52.222;20.916;2023-02-04T04:02:07;100312.03;;;0.37;100.00
21779;BME280;11050;52.222;20.916;2023-02-04T04:04:33;100309.81;;;0.26;100.00
21779;BME280;11050;52.222;20.916;2023-02-04T04:06:59;100325.91;;;0.20;100.00
21779;BME280;11050;52.222;20.916;2023-02-04T04:09:25;100337.91;;;0.17;100.00
21779;BME280;11050;52.222;20.916;2023-02-04T04:11:50;100340.94;;;0.08;100.00
21779;BME280;11050;52.222;20.916;2023-02-04T04:14:16;100355.38;;;0.00;100.00
21779;BME280;11050;52.222;20.916;2023-02-04T04:16:42;100361.13;;;-0.03;100.00
21779;BME280;11050;52.222;20.916;2023-02-04T04:19:07;100356.16;;;-0.14;100.00
21779;BME280;11050;52.222;20.916;2023-02-04T04:21:33;100374.78;;;-0.19;100.00
21779;BME280;11050;52.222;20.916;2023-02-04T04:23:59;100382.22;;;-0.21;100.00
21779;BME280;11050;52.222;20.916;2023-02-04T04:26:25;100394.22;;;-0.24;100.00
21779;BME280;11050;52.222;20.916;2023-02-04T04:28:50;100405.03;;;-0.24;100.00
21779;BME280;11050;52.222;20.916;2023-02-04T04:31:16;100416.19;;;-0.27;100.00
21779;BME280;11050;52.222;20.916;2023-02-04T04:33:42;100418.81;;;-0.19;100.00
21779;BME280;11050;52.222;20.916;2023-02-04T04:36:08;100426.25;;;-0.21;100.00
21779;BME280;11050;52.222;20.916;2023-02-04T04:38:34;100442.38;;;-0.13;100.00
21779;BME280;11050;52.222;20.916;2023-02-04T04:40:59;100443.25;;;-0.12;100.00
21779;BME280;11050;52.222;20.916;2023-02-04T04:43:25;100451.63;;;-0.07;100.00
21779;BME280;11050;52.222;20.916;2023-02-04T04:45:51;100458.53;;;-0.05;100.00
21779;BME280;11050;52.222;20.916;2023-02-04T04:48:17;100470.34;;;-0.06;100.00
21779;BME280;11050;52.222;20.916;2023-02-04T04:50:43;100468.50;;;-0.05;100.00
21779;BME280;11050;52.222;20.916;2023-02-04T04:53:09;100481.28;;;0.01;100.00
21779;BME280;11050;52.222;20.916;2023-02-04T04:55:39;100479.03;;;0.05;100.00
21779;BME280;11050;52.222;20.916;2023-02-04T04:58:07;100481.22;;;0.09;100.00
21779;BME280;11050;52.222;20.916;2023-02-04T05:00:33;100491.84;;;0.11;100.00
21779;BME280;11050;52.222;20.916;2023-02-04T05:02:59;100509.38;;;0.15;100.00
21779;BME280;11050;52.222;20.916;2023-02-04T05:05:25;100515.44;;;0.17;100.00
21779;BME280;11050;52.222;20.916;2023-02-04T05:07:51;100515.19;;;0.26;100.00
21779;BME280;11050;52.222;20.916;2023-02-04T05:10:19;100514.72;;;0.23;100.00
21779;BME280;11050;52.222;20.916;2023-02-04T05:12:45;100528.69;;;0.26;100.00
21779;BME280;11050;52.222;20.916;2023-02-04T05:15:11;100548.75;;;0.32;100.00
21779;BME280;11050;52.222;20.916;2023-02-04T05:17:37;100552.09;;;0.34;100.00
21779;BME280;11050;52.222;20.916;2023-02-04T05:20:03;100554.25;;;0.38;100.00
21779;BME280;11050;52.222;20.916;2023-02-04T05:22:29;100564.13;;;0.46;100.00
21779;BME280;11050;52.222;20.916;2023-02-04T05:24:55;100563.19;;;0.39;100.00
21779;BME280;11050;52.222;20.916;2023-02-04T05:27:21;100578.56;;;0.38;100.00
21779;BME280;11050;52.222;20.916;2023-02-04T05:29:46;100584.28;;;0.43;100.00
21779;BME280;11050;52.222;20.916;2023-02-04T05:32:12;100578.88;;;0.43;100.00
21779;BME280;11050;52.222;20.916;2023-02-04T05:34:38;100592.50;;;0.50;100.00
21779;BME280;11050;52.222;20.916;2023-02-04T05:37:04;100601.25;;;0.52;100.00
21779;BME280;11050;52.222;20.916;2023-02-04T05:39:29;100611.69;;;0.55;100.00
21779;BME280;11050;52.222;20.916;2023-02-04T05:41:55;100613.41;;;0.56;100.00
21779;BME280;11050;52.222;20.916;2023-02-04T05:44:21;100630.00;;;0.53;100.00
21779;BME280;11050;52.222;20.916;2023-02-04T05:46:46;100641.81;;;0.52;100.00
21779;BME280;11050;52.222;20.916;2023-02-04T05:49:12;100640.50;;;0.48;100.00
21779;BME280;11050;52.222;20.916;2023-02-04T05:51:38;100657.03;;;0.53;100.00
21779;BME280;11050;52.222;20.916;2023-02-04T05:54:04;100663.16;;;0.47;100.00
21779;BME280;11050;52.222;20.916;2023-02-04T05:56:29;100680.56;;;0.44;100.00
21779;BME280;11050;52.222;20.916;2023-02-04T05:58:55;100682.41;;;0.44;100.00
21779;BME280;11050;52.222;20.916;2023-02-04T06:01:21;100695.94;;;0.44;100.00
21779;BME280;11050;52.222;20.916;2023-02-04T06:03:46;100706.09;;;0.42;100.00
21779;BME280;11050;52.222;20.916;2023-02-04T06:06:12;100716.75;;;0.43;100.00
21779;BME280;11050;52.222;20.916;2023-02-04T06:08:38;100725.00;;;0.42;100.00
21779;BME280;11050;52.222;20.916;2023-02-04T06:11:04;100726.03;;;0.41;100.00
21779;BME280;11050;52.222;20.916;2023-02-04T06:13:30;100742.25;;;0.41;100.00
21779;BME280;11050;52.222;20.916;2023-02-04T06:15:55;100742.63;;;0.38;100.00
21779;BME280;11050;52.222;20.916;2023-02-04T06:18:21;100757.63;;;0.40;100.00
21779;BME280;11050;52.222;20.916;2023-02-04T06:20:47;100764.25;;;0.38;100.00
21779;BME280;11050;52.222;20.916;2023-02-04T06:23:13;100756.00;;;0.31;100.00
21779;BME280;11050;52.222;20.916;2023-02-04T06:25:38;100773.25;;;0.30;100.00
21779;BME280;11050;52.222;20.916;2023-02-04T06:28:04;100774.28;;;0.21;100.00
21779;BME280;11050;52.222;20.916;2023-02-04T06:30:30;100787.84;;;0.13;100.00
21779;BME280;11050;52.222;20.916;2023-02-04T06:32:55;100794.78;;;0.08;100.00
21779;BME280;11050;52.222;20.916;2023-02-04T06:35:21;100798.84;;;0.04;100.00
21779;BME280;11050;52.222;20.916;2023-02-04T06:37:47;100800.22;;;-0.01;100.00
21779;BME280;11050;52.222;20.916;2023-02-04T06:40:13;100815.25;;;-0.06;100.00
21779;BME280;11050;52.222;20.916;2023-02-04T06:42:39;100813.94;;;-0.18;100.00
21779;BME280;11050;52.222;20.916;2023-02-04T06:45:05;100819.69;;;-0.29;100.00
21779;BME280;11050;52.222;20.916;2023-02-04T06:47:31;100834.03;;;-0.29;100.00
21779;BME280;11050;52.222;20.916;2023-02-04T06:49:57;100836.06;;;-0.39;100.00
21779;BME280;11050;52.222;20.916;2023-02-04T06:52:23;100835.88;;;-0.45;100.00
21779;BME280;11050;52.222;20.916;2023-02-04T06:54:48;100854.78;;;-0.45;100.00
21779;BME280;11050;52.222;20.916;2023-02-04T06:57:14;100876.91;;;-0.50;100.00
21779;BME280;11050;52.222;20.916;2023-02-04T06:59:40;100869.66;;;-0.57;100.00
21779;BME280;11050;52.222;20.916;2023-02-04T07:02:10;100868.31;;;-0.61;100.00
21779;BME280;11050;52.222;20.916;2023-02-04T07:04:36;100887.88;;;-0.59;100.00
21779;BME280;11050;52.222;20.916;2023-02-04T07:07:02;100890.06;;;-0.63;100.00
21779;BME280;11050;52.222;20.916;2023-02-04T07:09:28;100900.19;;;-0.65;100.00
21779;BME280;11050;52.222;20.916;2023-02-04T07:11:54;100908.59;;;-0.60;100.00
21779;BME280;11050;52.222;20.916;2023-02-04T07:14:20;100903.38;;;-0.61;100.00
21779;BME280;11050;52.222;20.916;2023-02-04T07:16:45;100917.38;;;-0.66;100.00
21779;BME280;11050;52.222;20.916;2023-02-04T07:19:11;100917.38;;;-0.66;100.00
21779;BME280;11050;52.222;20.916;2023-02-04T07:21:37;100929.88;;;-0.65;100.00
21779;BME280;11050;52.222;20.916;2023-02-04T07:24:02;100936.25;;;-0.66;100.00
21779;BME280;11050;52.222;20.916;2023-02-04T07:26:28;100936.94;;;-0.64;100.00
21779;BME280;11050;52.222;20.916;2023-02-04T07:28:54;100941.34;;;-0.63;100.00
21779;BME280;11050;52.222;20.916;2023-02-04T07:31:20;100957.00;;;-0.58;100.00
21779;BME280;11050;52.222;20.916;2023-02-04T07:33:45;100953.50;;;-0.59;100.00
21779;BME280;11050;52.222;20.916;2023-02-04T07:36:11;100967.47;;;-0.63;100.00
21779;BME280;11050;52.222;20.916;2023-02-04T07:38:37;100971.06;;;-0.55;100.00
21779;BME280;11050;52.222;20.916;2023-02-04T07:41:03;100980.47;;;-0.51;100.00
21779;BME280;11050;52.222;20.916;2023-02-04T07:43:28;100975.63;;;-0.47;100.00
21779;BME280;11050;52.222;20.916;2023-02-04T07:45:54;100974.41;;;-0.45;100.00
21779;BME280;11050;52.222;20.916;2023-02-04T07:48:20;100982.53;;;-0.45;100.00
21779;BME280;11050;52.222;20.916;2023-02-04T07:50:45;100982.19;;;-0.42;100.00
21779;BME280;11050;52.222;20.916;2023-02-04T07:53:12;100997.72;;;-0.44;100.00
21779;BME280;11050;52.222;20.916;2023-02-04T07:55:37;100997.38;;;-0.41;100.00
21779;BME280;11050;52.222;20.916;2023-02-04T07:58:03;101013.22;;;-0.38;100.00
21779;BME280;11050;52.222;20.916;2023-02-04T08:00:29;101007.69;;;-0.36;99.35
21779;BME280;11050;52.222;20.916;2023-02-04T08:02:55;101016.94;;;-0.39;99.20
21779;BME280;11050;52.222;20.916;2023-02-04T08:05:21;101025.72;;;-0.37;98.55
21779;BME280;11050;52.222;20.916;2023-02-04T08:07:47;101035.03;;;-0.31;98.02
21779;BME280;11050;52.222;20.916;2023-02-04T08:10:13;101025.41;;;-0.26;97.60
21779;BME280;11050;52.222;20.916;2023-02-04T08:12:39;101037.56;;;-0.22;96.00
21779;BME280;11050;52.222;20.916;2023-02-04T08:15:05;101032.34;;;-0.23;95.57
21779;BME280;11050;52.222;20.916;2023-02-04T08:17:33;101027.97;;;-0.16;95.89
21779;BME280;11050;52.222;20.916;2023-02-04T08:19:59;101032.03;;;-0.12;94.51
21779;BME280;11050;52.222;20.916;2023-02-04T08:22:24;101048.91;;;-0.10;93.64
21779;BME280;11050;52.222;20.916;2023-02-04T08:24:50;101068.66;;;-0.02;93.50
21779;BME280;11050;52.222;20.916;2023-02-04T08:27:16;101062.44;;;-0.02;92.71
21779;BME280;11050;52.222;20.916;2023-02-04T08:29:42;101060.91;;;0.04;91.67
21779;BME280;11050;52.222;20.916;2023-02-04T08:32:08;101067.81;;;0.06;91.15
21779;BME280;11050;52.222;20.916;2023-02-04T08:34:38;101075.25;;;0.04;92.46
21779;BME280;11050;52.222;20.916;2023-02-04T08:37:04;101079.97;;;0.10;92.50
21779;BME280;11050;52.222;20.916;2023-02-04T08:39:30;101084.91;;;0.15;91.53
21779;BME280;11050;52.222;20.916;2023-02-04T08:41:57;101083.34;;;0.04;90.86
21779;BME280;11050;52.222;20.916;2023-02-04T08:44:23;101088.94;;;0.11;90.99
21779;BME280;11050;52.222;20.916;2023-02-04T08:46:49;101086.25;;;0.19;90.25
21779;BME280;11050;52.222;20.916;2023-02-04T08:49:15;101082.03;;;0.16;87.13
21779;BME280;11050;52.222;20.916;2023-02-04T08:51:40;101087.94;;;0.20;86.06
21779;BME280;11050;52.222;20.916;2023-02-04T08:54:06;101082.88;;;0.33;84.30
21779;BME280;11050;52.222;20.916;2023-02-04T08:56:32;101081.53;;;0.37;84.48
21779;BME280;11050;52.222;20.916;2023-02-04T08:58:59;101066.31;;;0.36;82.39
21779;BME280;11050;52.222;20.916;2023-02-04T09:01:25;101096.03;;;0.44;80.38
21779;BME280;11050;52.222;20.916;2023-02-04T09:03:51;101092.66;;;0.42;80.22
21779;BME280;11050;52.222;20.916;2023-02-04T09:06:17;101107.03;;;0.50;78.48
21779;BME280;11050;52.222;20.916;2023-02-04T09:08:43;101107.88;;;0.51;76.96
21779;BME280;11050;52.222;20.916;2023-02-04T09:11:09;101110.25;;;0.54;77.23
21779;BME280;11050;52.222;20.916;2023-02-04T09:13:37;101109.88;;;0.57;77.01
21779;BME280;11050;52.222;20.916;2023-02-04T09:16:04;101110.56;;;0.67;76.10
21779;BME280;11050;52.222;20.916;2023-02-04T09:18:30;101113.59;;;0.80;75.73
21779;BME280;11050;52.222;20.916;2023-02-04T09:20:57;101112.56;;;0.97;75.13
21779;BME280;11050;52.222;20.916;2023-02-04T09:23:23;101109.16;;;1.03;73.03
21779;BME280;11050;52.222;20.916;2023-02-04T09:25:49;101111.34;;;1.08;71.40
21779;BME280;11050;52.222;20.916;2023-02-04T09:28:15;101124.00;;;1.15;72.08
21779;BME280;11050;52.222;20.916;2023-02-04T09:30:45;101126.56;;;1.17;70.40
21779;BME280;11050;52.222;20.916;2023-02-04T09:33:13;101125.69;;;1.24;70.29
21779;BME280;11050;52.222;20.916;2023-02-04T09:35:39;101133.31;;;1.21;68.73
21779;BME280;11050;52.222;20.916;2023-02-04T09:38:05;101132.09;;;1.23;69.46
21779;BME280;11050;52.222;20.916;2023-02-04T09:40:34;101153.25;;;1.36;69.43
21779;BME280;11050;52.222;20.916;2023-02-04T09:43:03;101153.38;;;1.42;69.27
21779;BME280;11050;52.222;20.916;2023-02-04T09:45:34;101153.25;;;1.36;67.46
21779;BME280;11050;52.222;20.916;2023-02-04T09:48:04;101166.94;;;1.34;67.45
21779;BME280;11050;52.222;20.916;2023-02-04T09:50:32;101154.72;;;1.46;67.29
21779;BME280;11050;52.222;20.916;2023-02-04T09:53:03;101161.47;;;1.50;68.04
21779;BME280;11050;52.222;20.916;2023-02-04T09:55:44;101162.97;;;1.53;67.63
21779;BME280;11050;52.222;20.916;2023-02-04T09:58:17;101175.34;;;1.55;67.80
21779;BME280;11050;52.222;20.916;2023-02-04T10:00:45;101170.94;;;1.54;66.71
21779;BME280;11050;52.222;20.916;2023-02-04T10:03:18;101181.25;;;1.59;68.45
21779;BME280;11050;52.222;20.916;2023-02-04T10:05:47;101179.41;;;1.59;67.23
21779;BME280;11050;52.222;20.916;2023-02-04T10:08:18;101178.03;;;1.55;68.57
21779;BME280;11050;52.222;20.916;2023-02-04T10:10:47;101176.97;;;1.72;68.58
21779;BME280;11050;52.222;20.916;2023-02-04T10:13:20;101183.53;;;1.86;68.00
21779;BME280;11050;52.222;20.916;2023-02-04T10:15:49;101181.78;;;1.93;68.98
21779;BME280;11050;52.222;20.916;2023-02-04T10:18:28;101182.63;;;1.93;68.78
21779;BME280;11050;52.222;20.916;2023-02-04T10:21:19;101181.97;;;1.91;68.79
21779;BME280;11050;52.222;20.916;2023-02-04T10:23:49;101187.09;;;1.86;68.82
21779;BME280;11050;52.222;20.916;2023-02-04T10:26:23;101194.34;;;1.86;67.95
21779;BME280;11050;52.222;20.916;2023-02-04T10:29:15;101201.31;;;1.88;68.72
21779;BME280;11050;52.222;20.916;2023-02-04T10:31:48;101188.38;;;1.99;68.53
21779;BME280;11050;52.222;20.916;2023-02-04T10:34:23;101198.56;;;2.27;68.82
21779;BME280;11050;52.222;20.916;2023-02-04T10:36:57;101210.28;;;2.50;66.98
21779;BME280;11050;52.222;20.916;2023-02-04T10:39:28;101204.38;;;2.47;67.74
21779;BME280;11050;52.222;20.916;2023-02-04T10:41:59;101220.53;;;2.63;68.98
21779;BME280;11050;52.222;20.916;2023-02-04T10:44:33;101212.88;;;2.66;68.55
21779;BME280;11050;52.222;20.916;2023-02-04T10:47:05;101225.47;;;2.82;68.95
21779;BME280;11050;52.222;20.916;2023-02-04T10:49:32;101234.91;;;2.94;67.58
21779;BME280;11050;52.222;20.916;2023-02-04T10:52:00;101219.56;;;3.01;68.29
21779;BME280;11050;52.222;20.916;2023-02-04T10:54:34;101229.19;;;3.04;67.39
21779;BME280;11050;52.222;20.916;2023-02-04T10:57:21;101227.66;;;3.09;68.60
21779;BME280;11050;52.222;20.916;2023-02-04T10:59:51;101214.53;;;3.13;69.14
21779;BME280;11050;52.222;20.916;2023-02-04T11:02:42;101231.13;;;3.18;68.11
21779;BME280;11050;52.222;20.916;2023-02-04T11:05:22;101230.97;;;2.97;67.49
21779;BME280;11050;52.222;20.916;2023-02-04T11:07:49;101232.19;;;2.94;69.13
21779;BME280;11050;52.222;20.916;2023-02-04T11:10:22;101213.31;;;3.15;68.15
21779;BME280;11050;52.222;20.916;2023-02-04T11:15:47;101220.94;;;3.34;67.66
21779;BME280;11050;52.222;20.916;2023-02-04T11:20:50;101237.97;;;3.65;65.00
21779;BME280;11050;52.222;20.916;2023-02-04T11:26:11;101227.00;;;3.88;64.49
21779;BME280;11050;52.222;20.916;2023-02-04T11:33:45;101240.97;;;4.50;61.76
21779;BME280;11050;52.222;20.916;2023-02-04T11:36:14;101227.50;;;4.63;60.51
21779;BME280;11050;52.222;20.916;2023-02-04T11:38:46;101245.03;;;4.75;61.21
21779;BME280;11050;52.222;20.916;2023-02-04T11:41:25;101241.56;;;4.66;60.67
21779;BME280;11050;52.222;20.916;2023-02-04T11:43:53;101236.97;;;4.67;60.28
21779;BME280;11050;52.222;20.916;2023-02-04T11:46:20;101259.38;;;4.48;59.41
21779;BME280;11050;52.222;20.916;2023-02-04T11:48:46;101239.81;;;3.94;61.30
21779;BME280;11050;52.222;20.916;2023-02-04T11:51:20;101222.47;;;3.51;62.04
21779;BME280;11050;52.222;20.916;2023-02-04T11:53:51;101230.81;;;3.64;64.53
21779;BME280;11050;52.222;20.916;2023-02-04T11:56:22;101236.16;;;4.02;63.90
21779;BME280;11050;52.222;20.916;2023-02-04T11:58:49;101238.13;;;4.79;61.69
21779;BME280;11050;52.222;20.916;2023-02-04T12:01:28;101254.13;;;5.79;59.25
21779;BME280;11050;52.222;20.916;2023-02-04T12:04:04;101245.13;;;6.73;55.22
21779;BME280;11050;52.222;20.916;2023-02-04T12:06:35;101245.91;;;6.48;53.65
21779;BME280;11050;52.222;20.916;2023-02-04T12:09:29;101250.06;;;5.97;55.30
21779;BME280;11050;52.222;20.916;2023-02-04T12:11:59;101235.28;;;5.57;55.04
21779;BME280;11050;52.222;20.916;2023-02-04T12:14:35;101247.03;;;5.09;59.39
21779;BME280;11050;52.222;20.916;2023-02-04T12:17:19;101246.63;;;5.33;57.75
21779;BME280;11050;52.222;20.916;2023-02-04T12:19:45;101252.16;;;5.18;58.25
21779;BME280;11050;52.222;20.916;2023-02-04T12:22:10;101247.03;;;5.30;59.44
21779;BME280;11050;52.222;20.916;2023-02-04T12:24:37;101250.03;;;5.14;59.34
21779;BME280;11050;52.222;20.916;2023-02-04T12:27:03;101267.31;;;4.85;60.39
21779;BME280;11050;52.222;20.916;2023-02-04T12:29:29;101258.88;;;4.59;60.93
21779;BME280;11050;52.222;20.916;2023-02-04T12:31:55;101266.06;;;4.31;61.01
21779;BME280;11050;52.222;20.916;2023-02-04T12:34:20;101262.41;;;3.95;63.98
21779;BME280;11050;52.222;20.916;2023-02-04T12:36:46;101254.72;;;3.83;66.11
21779;BME280;11050;52.222;20.916;2023-02-04T12:39:12;101278.63;;;3.73;64.44
21779;BME280;11050;52.222;20.916;2023-02-04T12:41:37;101275.31;;;3.49;66.19
21779;BME280;11050;52.222;20.916;2023-02-04T12:44:03;101276.22;;;3.41;67.35
21779;BME280;11050;52.222;20.916;2023-02-04T12:46:29;101276.00;;;3.28;68.21
21779;BME280;11050;52.222;20.916;2023-02-04T12:48:55;101275.25;;;3.20;67.41
21779;BME280;11050;52.222;20.916;2023-02-04T12:51:21;101273.97;;;3.08;69.56
21779;BME280;11050;52.222;20.916;2023-02-04T12:53:48;101266.91;;;3.21;70.20
21779;BME280;11050;52.222;20.916;2023-02-04T12:56:14;101264.63;;;3.47;70.98
21779;BME280;11050;52.222;20.916;2023-02-04T12:58:40;101280.78;;;3.93;68.97